Time;durP1;ratioP1;P1;durP2;ratioP2;P2;SDS_P1;SDS_P2;PMS_P1;PMS_P2;Temp;Humidity;BMP_temperature;BMP_pressure;BME280_temperature;BME280_humidity;BME280_pressure;Samples;Min_cycle;Max_cycle;Signal;HPM_P1;HPM_P2
2021/01/26 00:01:18;;;;;;;1.73;0.60;;;12.90;80.70;;;;;;4949276;28;82196;-73
2021/01/26 00:03:44;;;;;;;1.40;0.50;;;12.90;80.70;;;;;;4967444;28;80523;-69
2021/01/26 00:06:10;;;;;;;0.95;0.32;;;12.90;80.80;;;;;;4967513;28;80147;-71
2021/01/26 00:08:36;;;;;;;2.67;0.75;;;12.90;80.80;;;;;;4967267;28;79902;-69
2021/01/26 00:11:03;;;;;;;0.88;0.35;;;12.80;80.80;;;;;;4949411;28;81519;-68
2021/01/26 00:13:30;;;;;;;7.38;0.95;;;12.90;80.80;;;;;;4949318;28;82833;-73
2021/01/26 00:15:56;;;;;;;1.35;0.45;;;12.90;80.80;;;;;;4949219;28;82765;-68
2021/01/26 00:18:22;;;;;;;1.83;0.40;;;12.90;80.60;;;;;;4949099;28;82882;-68
2021/01/26 00:20:48;;;;;;;0.50;0.30;;;12.90;80.50;;;;;;4967272;28;80254;-69
2021/01/26 00:23:15;;;;;;;1.88;0.20;;;12.90;80.60;;;;;;4967334;28;80504;-69
2021/01/26 00:25:42;;;;;;;1.20;0.30;;;12.90;80.60;;;;;;4965322;28;79985;-72
2021/01/26 00:28:10;;;;;;;1.13;0.25;;;12.90;80.60;;;;;;4967424;28;79741;-74
2021/01/26 00:30:39;;;;;;;0.65;0.30;;;12.90;80.70;;;;;;4949050;28;80458;-68
2021/01/26 00:33:12;;;;;;;0.38;0.13;;;12.80;80.80;;;;;;4949283;28;80140;-68
2021/01/26 00:35:39;;;;;;;0.68;0.30;;;12.80;80.90;;;;;;4966152;28;82662;-67
2021/01/26 00:38:06;;;;;;;3.03;0.88;;;12.80;81.00;;;;;;4968662;28;80883;-71
2021/01/26 00:40:31;;;;;;;1.20;0.32;;;12.80;81.10;;;;;;4970663;28;80063;-68
2021/01/26 00:42:58;;;;;;;1.05;0.50;;;12.80;81.10;;;;;;4952672;28;80642;-71
2021/01/26 00:45:25;;;;;;;3.00;0.32;;;12.80;81.10;;;;;;4952402;28;82297;-69
2021/01/26 00:47:51;;;;;;;0.85;0.30;;;12.90;81.10;;;;;;4952286;28;81036;-67
2021/01/26 00:50:18;;;;;;;1.05;0.40;;;12.90;81.10;;;;;;4952142;28;82661;-66
2021/01/26 00:52:44;;;;;;;0.77;0.20;;;12.90;81.00;;;;;;4952530;28;82543;-66
2021/01/26 00:55:12;;;;;;;1.60;0.20;;;12.90;81.00;;;;;;4952206;28;80571;-65
2021/01/26 00:57:40;;;;;;;1.05;0.30;;;12.90;80.80;;;;;;4970349;28;80733;-66
2021/01/26 01:00:09;;;;;;;1.45;0.40;;;13.00;80.70;;;;;;4970389;28;79922;-67
2021/01/26 01:02:35;;;;;;;0.98;0.30;;;13.00;80.60;;;;;;4970540;28;81104;-66
2021/01/26 01:05:01;;;;;;;1.20;0.38;;;13.00;80.50;;;;;;4970031;28;80715;-68
2021/01/26 01:07:26;;;;;;;0.90;0.40;;;13.00;80.40;;;;;;4968310;28;81158;-67
2021/01/26 01:09:52;;;;;;;2.92;0.82;;;13.10;80.50;;;;;;4952101;28;81547;-74
2021/01/26 01:12:18;;;;;;;1.00;0.30;;;13.10;80.50;;;;;;4969932;28;80575;-74
2021/01/26 01:14:44;;;;;;;1.65;0.40;;;13.00;80.60;;;;;;4970089;28;80030;-66
2021/01/26 01:17:10;;;;;;;0.70;0.30;;;13.10;80.60;;;;;;4951674;28;81117;-66
2021/01/26 01:19:36;;;;;;;1.40;0.52;;;13.00;80.70;;;;;;4952025;28;80885;-78
2021/01/26 01:22:02;;;;;;;1.10;0.30;;;13.00;80.80;;;;;;4951892;28;82700;-78
2021/01/26 01:24:28;;;;;;;1.00;0.20;;;13.10;80.90;;;;;;4952078;28;82705;-76
2021/01/26 01:26:53;;;;;;;1.20;0.35;;;13.10;80.80;;;;;;4951574;28;83336;-79
2021/01/26 01:29:19;;;;;;;2.13;0.38;;;13.20;80.80;;;;;;4969773;28;80182;-78
2021/01/26 01:31:45;;;;;;;2.65;0.52;;;13.10;80.80;;;;;;4951929;28;83010;-78
2021/01/26 01:34:11;;;;;;;1.27;0.30;;;13.10;80.80;;;;;;4969615;28;80096;-76
2021/01/26 01:36:37;;;;;;;1.05;0.20;;;13.00;80.80;;;;;;4970073;28;81158;-78
2021/01/26 01:39:08;;;;;;;1.70;0.45;;;13.00;80.60;;;;;;4969824;28;80566;-75
2021/01/26 01:41:36;;;;;;;1.00;0.38;;;12.90;80.40;;;;;;4951823;28;80243;-74
2021/01/26 01:44:06;;;;;;;2.00;0.60;;;12.90;80.40;;;;;;4951897;28;83026;-69
2021/01/26 01:46:42;;;;;;;2.88;0.70;;;12.80;80.30;;;;;;4969561;28;80790;-73
2021/01/26 01:49:10;;;;;;;1.67;0.65;;;12.70;80.40;;;;;;4950667;28;81664;-68
2021/01/26 01:51:40;;;;;;;2.50;0.60;;;12.60;80.30;;;;;;4969525;28;80566;-70
2021/01/26 01:54:11;;;;;;;8.48;1.30;;;12.60;80.20;;;;;;4951746;28;81515;-68
2021/01/26 01:56:53;;;;;;;1.80;0.73;;;12.60;80.20;;;;;;4968906;28;81088;-68
2021/01/26 01:59:24;;;;;;;1.27;0.50;;;12.60;80.30;;;;;;4951416;28;80051;-75
2021/01/26 02:01:50;;;;;;;1.15;0.38;;;12.50;80.60;;;;;;4951626;28;82516;-77
2021/01/26 02:04:19;;;;;;;0.90;0.30;;;12.40;80.80;;;;;;4969146;28;80308;-74
2021/01/26 02:06:50;;;;;;;1.48;0.70;;;12.50;80.90;;;;;;4951297;28;83096;-71
2021/01/26 02:09:36;;;;;;;1.50;0.77;;;12.40;81.10;;;;;;4968784;28;80189;-76
2021/01/26 02:12:05;;;;;;;1.90;0.90;;;12.30;81.40;;;;;;4951065;28;81749;-72
2021/01/26 02:14:35;;;;;;;1.10;0.60;;;12.20;81.90;;;;;;4950636;28;82795;-72
2021/01/26 02:17:37;;;;;;;0.98;0.47;;;12.20;82.10;;;;;;4951437;28;80815;-72
2021/01/26 02:20:24;;;;;;;1.00;0.40;;;12.10;82.40;;;;;;4951339;28;80845;-76
2021/01/26 02:23:16;;;;;;;1.30;0.63;;;12.00;82.70;;;;;;4951124;28;82725;-75
2021/01/26 02:26:00;;;;;;;2.20;0.68;;;11.90;82.90;;;;;;4968483;28;80737;-78
2021/01/26 02:28:37;;;;;;;1.55;0.80;;;11.90;83.10;;;;;;4951231;28;81583;-76
2021/01/26 02:31:33;;;;;;;2.30;1.02;;;11.90;83.20;;;;;;4950779;28;82777;-73
2021/01/26 02:34:35;;;;;;;2.95;0.75;;;11.90;82.90;;;;;;4951328;28;81096;-70
2021/01/26 02:37:04;;;;;;;1.50;0.82;;;11.90;83.00;;;;;;4968797;28;80198;-75
2021/01/26 02:39:44;;;;;;;2.22;1.40;;;11.90;83.50;;;;;;4969555;28;79734;-74
2021/01/26 02:42:34;;;;;;;2.13;1.00;;;11.90;83.70;;;;;;4950664;28;82396;-68
2021/01/26 02:45:34;;;;;;;1.90;1.13;;;11.90;83.90;;;;;;4968918;28;80571;-74
2021/01/26 02:48:06;;;;;;;3.50;1.30;;;11.90;84.20;;;;;;4950861;28;81468;-68
2021/01/26 02:50:50;;;;;;;2.22;1.48;;;11.80;84.60;;;;;;4951084;28;80729;-69
2021/01/26 02:53:53;;;;;;;2.90;1.30;;;11.70;84.70;;;;;;4968533;28;80091;-71
2021/01/26 02:56:38;;;;;;;2.33;1.17;;;11.70;85.00;;;;;;4949902;28;80846;-73
2021/01/26 02:59:21;;;;;;;3.50;1.50;;;11.70;85.30;;;;;;4950926;28;80597;-67
2021/01/26 03:02:29;;;;;;;3.63;2.03;;;11.80;85.40;;;;;;4949961;28;82700;-68
2021/01/26 03:05:06;;;;;;;3.47;2.08;;;11.90;85.10;;;;;;4924480;28;80352;-66
2021/01/26 03:07:35;;;;;;;3.17;1.88;;;11.90;85.00;;;;;;4967951;28;80024;-68
2021/01/26 03:10:07;;;;;;;3.10;1.77;;;12.00;85.00;;;;;;4950276;28;81370;-67
2021/01/26 03:12:45;;;;;;;3.58;2.08;;;12.10;84.90;;;;;;4950189;28;83269;-69
2021/01/26 03:15:17;;;;;;;3.80;1.88;;;12.10;84.80;;;;;;4950476;28;82704;-67
2021/01/26 03:18:14;;;;;;;2.75;1.88;;;12.20;84.90;;;;;;4950286;28;80892;-68
2021/01/26 03:20:47;;;;;;;2.70;1.40;;;12.30;84.50;;;;;;4938485;28;81847;-75
2021/01/26 03:23:45;;;;;;;3.25;1.25;;;12.30;84.50;;;;;;4949733;28;83118;-78
2021/01/26 03:26:18;;;;;;;3.10;1.30;;;12.30;84.40;;;;;;4950117;28;82336;-78
2021/01/26 03:28:45;;;;;;;2.58;1.30;;;12.30;84.40;;;;;;4967966;28;80659;-73
2021/01/26 03:31:16;;;;;;;2.47;1.58;;;12.30;84.30;;;;;;4967891;28;80361;-72
2021/01/26 03:33:47;;;;;;;5.75;2.42;;;12.40;84.20;;;;;;4949673;28;82716;-75
2021/01/26 03:36:14;;;;;;;6.18;2.80;;;12.40;84.30;;;;;;4949913;28;81037;-76
2021/01/26 03:38:41;;;;;;;6.00;2.92;;;12.40;84.40;;;;;;4950158;28;80958;-75
2021/01/26 03:41:07;;;;;;;7.13;3.35;;;12.40;84.50;;;;;;4949566;28;83220;-74
2021/01/26 03:43:33;;;;;;;8.18;3.08;;;12.40;84.60;;;;;;4949132;28;82948;-76
2021/01/26 03:46:34;;;;;;;6.78;3.20;;;12.40;84.80;;;;;;4949762;28;82757;-71
2021/01/26 03:49:37;;;;;;;6.80;3.50;;;12.40;84.70;;;;;;4950055;28;80708;-69
2021/01/26 03:52:40;;;;;;;6.20;3.58;;;12.40;84.80;;;;;;4949519;28;80143;-68
2021/01/26 03:55:37;;;;;;;7.32;3.63;;;12.40;84.80;;;;;;4967703;28;80449;-70
2021/01/26 03:58:18;;;;;;;7.53;3.40;;;12.40;84.80;;;;;;4967273;28;80417;-70
2021/01/26 04:00:59;;;;;;;7.93;3.92;;;12.40;85.00;;;;;;4949686;28;81093;-67
2021/01/26 04:03:30;;;;;;;7.60;3.58;;;12.40;85.10;;;;;;4967468;28;80129;-66
2021/01/26 04:06:10;;;;;;;9.20;4.03;;;12.50;85.00;;;;;;4949694;28;80709;-67
2021/01/26 04:08:51;;;;;;;5.80;3.70;;;12.50;85.00;;;;;;4967360;28;80570;-69
2021/01/26 04:11:42;;;;;;;5.60;3.35;;;12.50;84.90;;;;;;4948950;28;82389;-69
2021/01/26 04:14:31;;;;;;;4.00;2.38;;;12.50;84.90;;;;;;4967274;28;80335;-71
2021/01/26 04:17:22;;;;;;;6.28;2.30;;;12.50;84.90;;;;;;4949267;28;80928;-70
2021/01/26 04:19:57;;;;;;;3.10;1.85;;;12.50;85.00;;;;;;4949465;28;82759;-75
2021/01/26 04:22:24;;;;;;;5.70;2.38;;;12.50;85.30;;;;;;4949297;28;81002;-70
2021/01/26 04:24:49;;;;;;;4.35;2.60;;;12.50;85.40;;;;;;4967368;28;80374;-76
2021/01/26 04:27:24;;;;;;;4.97;2.97;;;12.50;85.50;;;;;;4949278;28;80730;-76
2021/01/26 04:29:51;;;;;;;3.75;2.40;;;12.50;85.50;;;;;;4949353;28;80678;-82
2021/01/26 04:32:18;;;;;;;3.35;2.03;;;12.50;85.40;;;;;;4967340;28;81590;-76
2021/01/26 04:34:45;;;;;;;3.28;1.95;;;12.50;85.50;;;;;;4949422;28;83314;-70
2021/01/26 04:37:10;;;;;;;5.00;2.50;;;12.40;85.70;;;;;;4967051;28;80898;-67
2021/01/26 04:39:36;;;;;;;3.17;2.08;;;12.40;85.80;;;;;;4949215;28;82668;-77
2021/01/26 04:42:16;;;;;;;3.47;1.98;;;12.40;85.80;;;;;;4948086;28;82578;-72
2021/01/26 04:44:51;;;;;;;3.65;2.33;;;12.50;85.90;;;;;;4949100;28;80684;-73
2021/01/26 04:47:19;;;;;;;3.40;2.00;;;12.50;85.90;;;;;;4967229;28;79883;-65
2021/01/26 04:50:16;;;;;;;5.18;3.15;;;12.50;85.80;;;;;;4949009;28;80430;-68
2021/01/26 04:53:24;;;;;;;4.93;2.60;;;12.50;85.70;;;;;;4966549;28;80571;-70
2021/01/26 04:56:15;;;;;;;4.28;2.65;;;12.50;85.50;;;;;;4948598;28;80294;-68
2021/01/26 04:59:10;;;;;;;4.35;3.17;;;12.50;85.50;;;;;;4944773;28;80546;-70
2021/01/26 05:01:56;;;;;;;6.38;2.78;;;12.50;85.70;;;;;;4966488;28;80682;-65
2021/01/26 05:04:32;;;;;;;5.70;3.25;;;12.60;85.70;;;;;;4967030;28;81042;-66
2021/01/26 05:07:21;;;;;;;5.28;3.20;;;12.60;85.60;;;;;;4949049;28;80748;-66
2021/01/26 05:09:58;;;;;;;5.53;3.50;;;12.60;85.60;;;;;;4948564;28;81333;-67
2021/01/26 05:12:26;;;;;;;6.40;3.67;;;12.60;85.90;;;;;;4948623;28;82482;-69
2021/01/26 05:14:58;;;;;;;6.45;3.17;;;12.50;86.00;;;;;;4966511;28;81142;-65
2021/01/26 05:17:34;;;;;;;6.15;3.25;;;12.60;86.10;;;;;;4948898;28;82530;-66
2021/01/26 05:20:03;;;;;;;5.35;3.30;;;12.60;86.10;;;;;;4948807;28;81053;-69
2021/01/26 05:22:32;;;;;;;5.35;3.35;;;12.60;86.10;;;;;;4948463;28;79927;-69
2021/01/26 05:25:05;;;;;;;5.68;3.47;;;12.60;86.10;;;;;;4969379;28;80545;-68
2021/01/26 05:27:32;;;;;;;5.05;3.22;;;12.60;86.10;;;;;;4969676;28;82332;-66
2021/01/26 05:29:59;;;;;;;6.07;3.58;;;12.60;86.00;;;;;;4951865;28;80772;-67
2021/01/26 05:32:26;;;;;;;4.65;2.78;;;12.70;85.90;;;;;;4951970;28;80529;-68
2021/01/26 05:34:54;;;;;;;5.45;3.58;;;12.70;85.80;;;;;;4951861;28;81658;-67
2021/01/26 05:37:21;;;;;;;7.72;3.78;;;12.70;85.70;;;;;;4969973;28;80359;-73
2021/01/26 05:39:53;;;;;;;6.45;3.50;;;12.70;85.70;;;;;;4951593;28;82779;-67
2021/01/26 05:42:20;;;;;;;7.43;4.07;;;12.80;85.70;;;;;;4950548;28;82492;-69
2021/01/26 05:44:56;;;;;;;7.60;4.68;;;12.70;85.70;;;;;;4952480;28;81111;-70
2021/01/26 05:47:22;;;;;;;7.45;4.57;;;12.70;85.80;;;;;;4969783;28;80313;-66
2021/01/26 05:49:48;;;;;;;6.47;3.90;;;12.70;86.00;;;;;;4969877;28;81141;-69
2021/01/26 05:52:15;;;;;;;5.90;3.67;;;12.70;86.00;;;;;;4969232;28;80030;-68
2021/01/26 05:54:53;;;;;;;6.70;3.70;;;12.70;86.00;;;;;;4951853;28;80093;-66
2021/01/26 05:57:34;;;;;;;6.22;3.55;;;12.70;86.10;;;;;;4951362;28;80154;-67
2021/01/26 06:00:28;;;;;;;6.88;3.60;;;12.70;86.10;;;;;;4951745;28;84305;-68
2021/01/26 06:03:26;;;;;;;6.85;3.83;;;12.60;86.10;;;;;;4952002;28;80849;-67
2021/01/26 06:05:59;;;;;;;6.88;3.78;;;12.70;86.10;;;;;;4909203;28;82909;-66
2021/01/26 06:08:25;;;;;;;;;;;12.70;86.20;;;;;;4952045;28;80466;-66
2021/01/26 06:10:51;;;;;;;7.80;3.83;;;12.60;86.00;;;;;;4956051;28;77056;-66
2021/01/26 06:13:27;;;;;;;7.15;3.30;;;12.60;86.20;;;;;;4969328;28;79900;-65
2021/01/26 06:16:11;;;;;;;6.32;3.70;;;12.60;86.30;;;;;;4969158;28;80360;-65
2021/01/26 06:18:38;;;;;;;7.75;4.55;;;12.50;86.30;;;;;;4951250;28;80042;-69
2021/01/26 06:21:11;;;;;;;6.85;3.95;;;12.50;86.30;;;;;;4950670;28;81973;-71
2021/01/26 06:23:38;;;;;;;6.00;3.45;;;12.50;86.40;;;;;;4951299;28;83651;-69
2021/01/26 06:26:09;;;;;;;8.00;4.18;;;12.50;86.30;;;;;;4969491;28;79779;-72
2021/01/26 06:28:55;;;;;;;6.13;3.33;;;12.60;86.30;;;;;;4969386;28;80793;-67
2021/01/26 06:31:46;;;;;;;7.13;3.78;;;12.50;86.10;;;;;;4968028;28;80632;-72
2021/01/26 06:35:07;;;;;;;7.00;4.30;;;12.50;86.40;;;;;;4959450;28;80719;-67
2021/01/26 06:38:02;;;;;;;9.00;4.68;;;12.50;86.30;;;;;;4912549;28;80967;-66
2021/01/26 06:40:30;;;;;;;9.65;5.47;;;12.40;86.50;;;;;;4935818;28;82361;-69
2021/01/26 06:43:01;;;;;;;8.30;4.80;;;12.40;86.70;;;;;;4935616;28;82856;-68
2021/01/26 06:45:30;;;;;;;8.32;4.47;;;12.40;86.80;;;;;;4932797;28;83127;-70
2021/01/26 06:48:01;;;;;;;6.85;4.35;;;12.40;86.60;;;;;;4934820;28;82397;-70
2021/01/26 06:50:46;;;;;;;7.85;4.85;;;12.50;86.60;;;;;;4934549;28;82759;-67
2021/01/26 06:53:27;;;;;;;6.68;4.30;;;12.60;86.40;;;;;;4933996;28;81419;-68
2021/01/26 06:56:04;;;;;;;8.32;4.93;;;12.60;86.30;;;;;;4950062;28;80876;-70
2021/01/26 06:58:51;;;;;;;9.50;5.35;;;12.60;86.20;;;;;;4938227;28;82789;-68
2021/01/26 07:01:20;;;;;;;14.30;8.00;;;12.60;86.10;;;;;;4955447;28;81425;-67
2021/01/26 07:04:18;;;;;;;11.80;6.93;;;12.60;86.20;;;;;;4937419;28;84186;-63
2021/01/26 07:06:55;;;;;;;11.27;6.18;;;12.70;86.00;;;;;;4955453;28;81441;-65
2021/01/26 07:09:47;;;;;;;7.85;4.97;;;12.70;86.00;;;;;;4937016;28;82956;-66
2021/01/26 07:12:35;;;;;;;7.93;4.18;;;12.70;85.80;;;;;;4954528;28;80852;-63
2021/01/26 07:15:22;;;;;;;8.20;4.90;;;12.70;86.00;;;;;;4937451;28;82537;-64
2021/01/26 07:18:11;;;;;;;11.10;5.25;;;12.70;85.80;;;;;;4953327;28;81827;-69
2021/01/26 07:20:50;;;;;;;7.30;4.80;;;12.70;85.70;;;;;;4954057;28;82039;-71
2021/01/26 07:23:40;;;;;;;9.10;4.82;;;12.70;85.80;;;;;;4936656;28;82584;-71
2021/01/26 07:26:53;;;;;;;7.15;4.97;;;12.70;85.70;;;;;;4936825;28;81907;-66
2021/01/26 07:29:36;;;;;;;9.65;5.57;;;12.80;85.40;;;;;;4858891;28;83091;-68
2021/01/26 07:32:13;;;;;;;8.20;4.80;;;12.70;85.60;;;;;;4935540;28;82617;-69
2021/01/26 07:35:14;;;;;;;9.50;5.93;;;12.70;85.60;;;;;;4936145;28;81719;-64
2021/01/26 07:37:47;;;;;;;12.93;5.68;;;12.70;85.50;;;;;;4935844;28;81412;-64
2021/01/26 07:40:25;;;;;;;9.88;5.82;;;12.80;85.60;;;;;;4936731;28;81750;-64
2021/01/26 07:43:28;;;;;;;8.70;5.22;;;12.80;85.50;;;;;;4953562;28;81924;-63
2021/01/26 07:46:07;;;;;;;8.73;5.35;;;12.90;85.40;;;;;;4936371;28;83648;-64
2021/01/26 07:48:39;;;;;;;8.95;5.38;;;12.80;85.40;;;;;;4952672;28;81994;-63
2021/01/26 07:51:15;;;;;;;8.57;5.33;;;12.80;85.50;;;;;;4935850;28;85543;-63
2021/01/26 07:53:54;;;;;;;8.32;4.97;;;12.70;85.50;;;;;;4953572;28;81212;-65
2021/01/26 07:56:31;;;;;;;9.07;5.13;;;12.80;85.60;;;;;;4935463;28;81695;-63
2021/01/26 07:58:57;;;;;;;8.60;5.25;;;12.80;85.50;;;;;;4934493;28;82741;-66
2021/01/26 08:01:25;;;;;;;8.55;5.25;;;12.80;85.40;;;;;;4934177;28;82237;-63
2021/01/26 08:03:52;;;;;;;7.00;4.43;;;12.80;85.40;;;;;;4935220;28;82660;-63
2021/01/26 08:06:49;;;;;;;9.82;5.18;;;12.80;85.40;;;;;;4953804;28;81438;-65
2021/01/26 08:09:35;;;;;;;9.65;4.70;;;12.90;85.20;;;;;;4922015;28;81741;-65
2021/01/26 08:12:06;;;;;;;6.93;3.92;;;12.90;85.20;;;;;;4933778;28;82529;-64
2021/01/26 08:14:52;;;;;;;8.07;5.10;;;12.90;85.10;;;;;;4953533;28;81057;-64
2021/01/26 08:17:30;;;;;;;10.68;4.50;;;13.00;84.80;;;;;;4953048;28;80595;-63
2021/01/26 08:20:17;;;;;;;8.13;4.40;;;13.00;84.70;;;;;;4953795;28;81299;-63
2021/01/26 08:22:58;;;;;;;9.63;4.18;;;13.10;84.50;;;;;;4935955;28;81419;-64
2021/01/26 08:25:33;;;;;;;7.30;4.20;;;13.00;84.50;;;;;;4953169;28;81680;-63
2021/01/26 08:28:00;;;;;;;7.85;4.85;;;12.90;84.50;;;;;;4935536;28;82388;-65
2021/01/26 08:30:53;;;;;;;6.50;4.15;;;13.00;84.70;;;;;;4934739;28;83083;-66
2021/01/26 08:33:22;;;;;;;8.40;4.50;;;13.10;84.30;;;;;;4934876;28;83308;-64
2021/01/26 08:35:47;;;;;;;11.77;5.10;;;13.20;84.20;;;;;;4936530;28;81521;-65
2021/01/26 08:38:48;;;;;;;8.80;4.38;;;13.30;83.90;;;;;;4935201;28;83456;-67
2021/01/26 08:41:35;;;;;;;7.28;4.07;;;13.30;83.60;;;;;;4889268;28;81183;-65
2021/01/26 08:44:02;;;;;;;5.88;3.33;;;13.40;83.40;;;;;;4935866;28;83445;-65
2021/01/26 08:46:37;;;;;;;6.22;3.75;;;13.50;83.00;;;;;;4935380;28;82849;-65
2021/01/26 08:49:25;;;;;;;9.45;4.50;;;13.50;82.90;;;;;;4935381;28;81814;-65
2021/01/26 08:51:52;;;;;;;9.30;4.90;;;13.60;82.80;;;;;;4934655;28;83942;-64
2021/01/26 08:54:40;;;;;;;8.48;3.63;;;13.60;82.70;;;;;;4952827;28;81196;-68
2021/01/26 08:57:29;;;;;;;9.43;4.75;;;13.60;82.50;;;;;;4934842;28;80752;-66
2021/01/26 09:00:18;;;;;;;6.38;3.85;;;13.70;82.40;;;;;;4927583;28;83289;-67
2021/01/26 09:02:51;;;;;;;7.68;4.20;;;13.70;82.10;;;;;;4937698;28;85516;-67
2021/01/26 09:05:37;;;;;;;;;;;13.80;82.00;;;;;;4957177;28;80813;-64
2021/01/26 09:08:07;;;;;;;8.52;4.15;;;13.70;81.80;;;;;;4920245;28;75932;-68
2021/01/26 09:10:37;;;;;;;10.57;4.55;;;13.70;82.10;;;;;;4955644;28;81658;-61
2021/01/26 09:13:27;;;;;;;9.73;5.00;;;13.70;82.10;;;;;;4956824;28;80507;-60
2021/01/26 09:15:57;;;;;;;7.72;4.68;;;13.90;81.60;;;;;;4938294;28;82488;-64
2021/01/26 09:18:26;;;;;;;7.18;4.28;;;14.00;81.30;;;;;;4938674;28;81987;-63
2021/01/26 09:21:03;;;;;;;8.50;4.40;;;14.10;81.00;;;;;;4956088;28;81949;-65
2021/01/26 09:23:30;;;;;;;8.55;5.32;;;14.20;80.70;;;;;;4955586;28;81024;-65
2021/01/26 09:25:57;;;;;;;8.20;4.70;;;14.40;80.50;;;;;;4937750;28;81691;-66
2021/01/26 09:28:23;;;;;;;6.38;3.97;;;14.50;80.00;;;;;;4956012;28;80872;-65
2021/01/26 09:31:11;;;;;;;7.80;4.35;;;14.60;79.50;;;;;;4938010;28;81646;-65
2021/01/26 09:33:37;;;;;;;9.18;4.68;;;14.90;78.80;;;;;;4954480;28;80871;-64
2021/01/26 09:36:03;;;;;;;7.57;4.65;;;15.00;78.10;;;;;;4956192;28;80619;-65
2021/01/26 09:38:31;;;;;;;5.88;4.22;;;15.00;77.70;;;;;;4956167;28;80900;-65
2021/01/26 09:41:06;;;;;;;6.75;4.40;;;15.00;77.50;;;;;;4956164;28;81061;-65
2021/01/26 09:43:36;;;;;;;6.95;4.03;;;14.90;77.90;;;;;;4954854;28;82824;-64
2021/01/26 09:46:03;;;;;;;5.93;4.13;;;14.80;78.10;;;;;;4937512;28;82164;-65
2021/01/26 09:48:38;;;;;;;5.22;3.70;;;14.80;78.10;;;;;;4955638;28;81770;-64
2021/01/26 09:51:31;;;;;;;7.15;4.20;;;14.70;78.00;;;;;;4955902;28;80259;-64
2021/01/26 09:54:05;;;;;;;16.42;4.50;;;14.80;77.90;;;;;;4955371;28;81215;-64
2021/01/26 09:56:33;;;;;;;8.45;4.07;;;14.90;77.70;;;;;;4954851;28;81956;-66
2021/01/26 09:59:00;;;;;;;6.25;3.55;;;15.00;77.40;;;;;;4937921;28;83785;-63
2021/01/26 10:01:26;;;;;;;7.35;3.78;;;15.00;77.00;;;;;;4955476;28;82003;-64
2021/01/26 10:04:00;;;;;;;7.53;4.32;;;15.00;76.90;;;;;;4937104;28;82238;-65
2021/01/26 10:06:27;;;;;;;7.45;3.83;;;15.00;77.10;;;;;;4937970;28;82408;-65
2021/01/26 10:08:53;;;;;;;7.00;4.03;;;15.00;77.10;;;;;;4937801;28;80816;-66
2021/01/26 10:11:29;;;;;;;5.40;3.75;;;14.90;77.20;;;;;;4934624;28;82485;-66
2021/01/26 10:14:15;;;;;;;4.68;2.83;;;15.00;77.20;;;;;;4953895;28;82075;-65
2021/01/26 10:16:44;;;;;;;3.80;2.72;;;15.10;77.00;;;;;;4937587;28;81146;-66
2021/01/26 10:19:23;;;;;;;5.20;3.33;;;15.20;76.70;;;;;;4955214;28;81825;-64
2021/01/26 10:21:50;;;;;;;4.25;2.58;;;15.30;76.40;;;;;;4936799;28;81426;-64
2021/01/26 10:24:29;;;;;;;6.30;3.60;;;15.40;76.10;;;;;;4937468;28;82599;-63
2021/01/26 10:27:13;;;;;;;5.22;3.90;;;15.50;75.90;;;;;;4937115;28;81298;-62
2021/01/26 10:29:43;;;;;;;4.82;3.63;;;15.50;75.90;;;;;;4954840;28;80662;-64
2021/01/26 10:32:33;;;;;;;6.07;3.95;;;15.70;75.50;;;;;;4954583;28;82142;-62
2021/01/26 10:34:59;;;;;;;6.15;3.95;;;15.80;74.90;;;;;;4936386;28;84097;-64
2021/01/26 10:37:25;;;;;;;5.50;3.95;;;16.00;74.60;;;;;;4955342;28;80972;-64
2021/01/26 10:40:15;;;;;;;9.40;3.45;;;16.30;73.70;;;;;;4955382;28;82231;-62
2021/01/26 10:42:54;;;;;;;5.93;3.20;;;16.40;73.20;;;;;;4937438;28;83758;-63
2021/01/26 10:45:33;;;;;;;5.78;3.47;;;16.50;73.00;;;;;;4936636;28;81530;-64
2021/01/26 10:48:34;;;;;;;6.55;3.53;;;16.50;72.90;;;;;;4936844;28;82839;-62
2021/01/26 10:51:16;;;;;;;10.10;3.55;;;16.70;72.90;;;;;;4947672;28;81539;-64
2021/01/26 10:53:47;;;;;;;8.63;4.10;;;17.20;71.50;;;;;;4954667;28;82299;-67
2021/01/26 10:56:14;;;;;;;3.67;2.05;;;17.60;69.90;;;;;;4954393;28;81680;-66
2021/01/26 10:58:44;;;;;;;4.20;2.17;;;17.90;68.30;;;;;;4935554;28;81222;-65
2021/01/26 11:01:13;;;;;;;3.92;2.50;;;18.20;66.80;;;;;;4952723;28;81078;-66
2021/01/26 11:03:40;;;;;;;4.53;2.28;;;18.00;67.30;;;;;;4936833;28;81723;-64
2021/01/26 11:06:07;;;;;;;3.50;2.50;;;18.60;66.40;;;;;;4954601;28;81128;-63
2021/01/26 11:08:33;;;;;;;2.75;1.75;;;19.60;62.90;;;;;;4936831;28;81205;-63
2021/01/26 11:10:59;;;;;;;3.70;1.92;;;20.60;59.20;;;;;;4920577;28;82000;-63
2021/01/26 11:13:25;;;;;;;2.83;1.50;;;20.00;60.30;;;;;;4955028;28;80673;-65
2021/01/26 11:15:51;;;;;;;7.18;2.40;;;19.40;62.00;;;;;;4936208;28;81027;-64
2021/01/26 11:18:17;;;;;;;4.57;2.13;;;19.50;61.50;;;;;;4936215;28;82485;-64
2021/01/26 11:20:43;;;;;;;3.05;1.35;;;19.50;61.60;;;;;;4936329;28;81950;-64
2021/01/26 11:23:11;;;;;;;3.78;1.77;;;20.70;57.90;;;;;;4953447;28;81126;-66
2021/01/26 11:25:37;;;;;;;3.83;1.45;;;21.00;56.50;;;;;;4954144;28;82008;-63
2021/01/26 11:28:05;;;;;;;2.92;1.42;;;20.70;55.90;;;;;;4934271;28;82434;-64
2021/01/26 11:30:32;;;;;;;3.35;1.50;;;19.50;59.20;;;;;;4936517;28;82046;-67
2021/01/26 11:32:58;;;;;;;2.97;1.30;;;18.80;61.40;;;;;;4935812;28;81223;-63
2021/01/26 11:35:25;;;;;;;1.45;0.90;;;19.40;59.70;;;;;;4936058;28;82185;-63
2021/01/26 11:37:52;;;;;;;4.68;1.58;;;18.90;60.60;;;;;;4953469;28;81908;-64
2021/01/26 11:40:20;;;;;;;3.47;1.63;;;18.70;61.00;;;;;;4935878;28;81545;-64
2021/01/26 11:42:45;;;;;;;4.47;1.85;;;18.60;61.40;;;;;;4956196;28;82741;-66
2021/01/26 11:45:25;;;;;;;3.47;1.27;;;18.40;62.40;;;;;;4954563;28;81609;-63
2021/01/26 11:47:51;;;;;;;2.95;1.80;;;18.10;63.30;;;;;;4936990;28;81940;-62
2021/01/26 11:50:19;;;;;;;3.80;1.60;;;18.10;63.70;;;;;;4953589;28;80811;-64
2021/01/26 11:52:45;;;;;;;1.40;1.00;;;18.90;62.30;;;;;;4936960;28;81678;-62
2021/01/26 11:55:18;;;;;;;1.85;1.10;;;20.40;57.40;;;;;;4954749;28;81401;-64
2021/01/26 11:57:46;;;;;;;2.33;1.45;;;21.60;53.80;;;;;;4954543;28;81505;-67
2021/01/26 12:00:15;;;;;;;3.53;1.35;;;21.50;53.00;;;;;;4936991;28;82152;-67
2021/01/26 12:02:41;;;;;;;6.22;1.75;;;20.80;55.40;;;;;;4953575;28;82244;-65
2021/01/26 12:05:07;;;;;;;4.85;1.63;;;22.30;52.20;;;;;;4919320;28;82313;-66
2021/01/26 12:07:33;;;;;;;5.40;1.95;;;23.30;49.90;;;;;;4953578;28;81156;-64
2021/01/26 12:09:59;;;;;;;3.97;1.50;;;24.50;46.50;;;;;;4953636;28;82009;-64
2021/01/26 12:12:25;;;;;;;4.47;1.50;;;24.60;46.10;;;;;;4935495;28;80793;-65
2021/01/26 12:14:51;;;;;;;2.03;1.08;;;24.20;47.20;;;;;;4934513;28;82898;-63
2021/01/26 12:17:17;;;;;;;6.93;1.92;;;23.20;49.20;;;;;;4953798;28;80962;-64
2021/01/26 12:19:42;;;;;;;3.80;1.10;;;22.10;51.90;;;;;;4934902;28;83351;-63
2021/01/26 12:22:08;;;;;;;4.78;1.48;;;21.90;52.00;;;;;;4935490;28;82383;-62
2021/01/26 12:24:34;;;;;;;4.00;1.48;;;22.40;51.00;;;;;;4935504;28;83294;-65
2021/01/26 12:27:00;;;;;;;7.38;1.98;;;24.00;47.60;;;;;;4935838;28;81251;-65
2021/01/26 12:29:25;;;;;;;2.63;1.52;;;26.40;43.00;;;;;;4934999;28;82654;-66
2021/01/26 12:31:51;;;;;;;3.15;1.40;;;28.40;39.10;;;;;;4953443;28;81779;-64
2021/01/26 12:34:17;;;;;;;3.15;1.77;;;30.00;36.60;;;;;;4951766;28;82518;-65
2021/01/26 12:36:43;;;;;;;5.95;2.42;;;31.10;34.90;;;;;;4934279;28;84199;-67
2021/01/26 12:39:09;;;;;;;4.97;1.33;;;31.90;33.50;;;;;;4953653;28;81266;-66
2021/01/26 12:41:34;;;;;;;3.83;1.48;;;32.00;33.30;;;;;;4934808;28;82542;-64
2021/01/26 12:44:02;;;;;;;6.72;1.95;;;31.90;33.20;;;;;;4935566;28;82288;-66
2021/01/26 12:46:28;;;;;;;3.95;1.50;;;31.90;33.30;;;;;;4935182;28;83184;-66
2021/01/26 12:48:54;;;;;;;3.60;1.35;;;31.00;34.50;;;;;;4935475;28;83815;-65
2021/01/26 12:51:20;;;;;;;3.75;1.40;;;29.10;36.80;;;;;;4953147;28;81585;-65
2021/01/26 12:53:46;;;;;;;4.63;1.52;;;27.50;39.50;;;;;;4953470;28;82455;-66
2021/01/26 12:56:12;;;;;;;4.78;1.70;;;26.40;41.50;;;;;;4952901;28;81500;-66
2021/01/26 12:58:38;;;;;;;4.47;1.83;;;25.50;43.20;;;;;;4934417;28;83061;-65
2021/01/26 13:01:04;;;;;;;5.15;1.35;;;24.50;45.10;;;;;;4937066;28;81617;-66
2021/01/26 13:03:29;;;;;;;4.25;1.45;;;23.70;46.80;;;;;;4937531;28;81661;-66
2021/01/26 13:05:56;;;;;;;2.75;1.48;;;23.40;47.70;;;;;;4934645;28;82344;-66
2021/01/26 13:08:22;;;;;;;2.72;1.30;;;23.50;47.20;;;;;;4937304;28;83126;-68
2021/01/26 13:10:48;;;;;;;3.50;1.50;;;23.30;47.80;;;;;;4936857;28;81820;-65
2021/01/26 13:13:14;;;;;;;2.08;0.95;;;23.00;48.60;;;;;;4937581;28;82391;-67
2021/01/26 13:15:39;;;;;;;1.70;0.80;;;23.70;47.40;;;;;;4955420;28;81442;-64
2021/01/26 13:18:05;;;;;;;2.75;0.93;;;24.70;45.20;;;;;;4955707;28;81555;-67
2021/01/26 13:20:31;;;;;;;2.42;1.27;;;25.30;43.90;;;;;;4937346;28;82188;-66
2021/01/26 13:22:57;;;;;;;2.78;1.30;;;25.30;44.20;;;;;;4937427;28;81699;-65
2021/01/26 13:25:24;;;;;;;2.42;1.27;;;26.20;42.50;;;;;;4937267;28;82719;-66